sensor_id;sensor_type;location;lat;lon;timestamp;P1;durP1;ratioP1;P2;durP2;ratioP2
45198;SDS011;30941;46.422;18.772;2024-03-23T00:53:41;31.17;;;21.05;;
45198;SDS011;30941;46.422;18.772;2024-03-23T00:56:07;27.98;;;20.33;;
45198;SDS011;30941;46.422;18.772;2024-03-23T00:58:32;30.52;;;20.50;;
45198;SDS011;30941;46.422;18.772;2024-03-23T01:00:58;30.88;;;20.85;;
45198;SDS011;30941;46.422;18.772;2024-03-23T01:03:23;30.73;;;20.48;;
45198;SDS011;30941;46.422;18.772;2024-03-23T01:05:48;29.00;;;21.02;;
45198;SDS011;30941;46.422;18.772;2024-03-23T01:08:14;28.08;;;20.42;;
45198;SDS011;30941;46.422;18.772;2024-03-23T01:10:39;32.00;;;20.05;;
45198;SDS011;30941;46.422;18.772;2024-03-23T01:13:05;27.95;;;19.30;;
45198;SDS011;30941;46.422;18.772;2024-03-23T01:15:30;29.83;;;20.83;;
45198;SDS011;30941;46.422;18.772;2024-03-23T01:17:55;29.35;;;19.75;;
45198;SDS011;30941;46.422;18.772;2024-03-23T01:20:21;28.75;;;20.25;;
45198;SDS011;30941;46.422;18.772;2024-03-23T01:22:46;33.15;;;21.33;;
45198;SDS011;30941;46.422;18.772;2024-03-23T01:25:11;32.90;;;21.88;;
45198;SDS011;30941;46.422;18.772;2024-03-23T01:27:37;29.52;;;20.80;;
45198;SDS011;30941;46.422;18.772;2024-03-23T01:30:02;27.35;;;19.55;;
45198;SDS011;30941;46.422;18.772;2024-03-23T01:32:28;27.45;;;19.25;;
45198;SDS011;30941;46.422;18.772;2024-03-23T01:34:53;28.42;;;19.35;;
45198;SDS011;30941;46.422;18.772;2024-03-23T01:37:18;30.33;;;19.75;;
45198;SDS011;30941;46.422;18.772;2024-03-23T01:39:44;28.75;;;20.15;;
45198;SDS011;30941;46.422;18.772;2024-03-23T01:42:09;28.27;;;20.73;;
45198;SDS011;30941;46.422;18.772;2024-03-23T01:44:34;28.45;;;18.63;;
45198;SDS011;30941;46.422;18.772;2024-03-23T01:47:00;30.10;;;21.25;;
45198;SDS011;30941;46.422;18.772;2024-03-23T01:49:25;31.25;;;22.20;;
45198;SDS011;30941;46.422;18.772;2024-03-23T01:51:51;30.27;;;21.08;;
45198;SDS011;30941;46.422;18.772;2024-03-23T01:54:16;29.15;;;20.67;;
45198;SDS011;30941;46.422;18.772;2024-03-23T01:56:41;30.60;;;20.58;;
45198;SDS011;30941;46.422;18.772;2024-03-23T01:59:07;30.73;;;21.88;;
45198;SDS011;30941;46.422;18.772;2024-03-23T02:01:34;30.63;;;22.52;;
45198;SDS011;30941;46.422;18.772;2024-03-23T02:04:01;32.35;;;21.10;;
45198;SDS011;30941;46.422;18.772;2024-03-23T02:06:26;33.58;;;21.30;;
45198;SDS011;30941;46.422;18.772;2024-03-23T02:08:52;32.40;;;21.58;;
45198;SDS011;30941;46.422;18.772;2024-03-23T02:11:18;33.38;;;21.67;;
45198;SDS011;30941;46.422;18.772;2024-03-23T02:13:43;33.67;;;21.70;;
45198;SDS011;30941;46.422;18.772;2024-03-23T02:16:09;30.40;;;21.15;;
45198;SDS011;30941;46.422;18.772;2024-03-23T02:18:34;28.92;;;20.83;;
45198;SDS011;30941;46.422;18.772;2024-03-23T02:21:00;27.98;;;19.88;;
45198;SDS011;30941;46.422;18.772;2024-03-23T02:23:25;29.15;;;21.77;;
45198;SDS011;30941;46.422;18.772;2024-03-23T02:25:51;31.45;;;20.73;;
45198;SDS011;30941;46.422;18.772;2024-03-23T02:28:16;32.00;;;21.17;;
45198;SDS011;30941;46.422;18.772;2024-03-23T02:30:44;29.48;;;21.17;;
45198;SDS011;30941;46.422;18.772;2024-03-23T02:33:10;31.42;;;21.05;;
45198;SDS011;30941;46.422;18.772;2024-03-23T02:35:35;33.50;;;22.27;;
45198;SDS011;30941;46.422;18.772;2024-03-23T02:38:01;29.38;;;20.40;;
45198;SDS011;30941;46.422;18.772;2024-03-23T02:40:28;27.20;;;20.25;;
45198;SDS011;30941;46.422;18.772;2024-03-23T02:42:54;31.05;;;20.63;;
45198;SDS011;30941;46.422;18.772;2024-03-23T02:45:19;31.27;;;21.63;;
45198;SDS011;30941;46.422;18.772;2024-03-23T02:47:45;28.75;;;20.67;;
45198;SDS011;30941;46.422;18.772;2024-03-23T02:50:10;34.67;;;21.75;;
45198;SDS011;30941;46.422;18.772;2024-03-23T02:52:36;32.58;;;22.92;;
45198;SDS011;30941;46.422;18.772;2024-03-23T02:55:02;28.85;;;20.08;;
45198;SDS011;30941;46.422;18.772;2024-03-23T02:57:28;31.95;;;21.08;;
45198;SDS011;30941;46.422;18.772;2024-03-23T02:59:53;32.03;;;22.33;;
45198;SDS011;30941;46.422;18.772;2024-03-23T03:02:19;35.15;;;22.38;;
45198;SDS011;30941;46.422;18.772;2024-03-23T03:04:45;33.05;;;22.00;;
45198;SDS011;30941;46.422;18.772;2024-03-23T03:07:10;36.53;;;22.27;;
45198;SDS011;30941;46.422;18.772;2024-03-23T03:09:35;36.70;;;22.73;;
45198;SDS011;30941;46.422;18.772;2024-03-23T03:12:01;32.63;;;21.95;;
45198;SDS011;30941;46.422;18.772;2024-03-23T03:14:27;30.80;;;22.50;;
45198;SDS011;30941;46.422;18.772;2024-03-23T03:16:53;30.25;;;22.23;;
45198;SDS011;30941;46.422;18.772;2024-03-23T03:19:18;41.35;;;24.70;;
45198;SDS011;30941;46.422;18.772;2024-03-23T03:21:44;34.75;;;23.63;;
45198;SDS011;30941;46.422;18.772;2024-03-23T03:24:09;34.70;;;21.30;;
45198;SDS011;30941;46.422;18.772;2024-03-23T03:26:34;33.50;;;22.52;;
45198;SDS011;30941;46.422;18.772;2024-03-23T03:29:00;34.22;;;23.23;;
45198;SDS011;30941;46.422;18.772;2024-03-23T03:31:25;37.85;;;23.63;;
45198;SDS011;30941;46.422;18.772;2024-03-23T03:33:51;33.72;;;22.90;;
45198;SDS011;30941;46.422;18.772;2024-03-23T03:36:16;33.58;;;23.08;;
45198;SDS011;30941;46.422;18.772;2024-03-23T03:38:41;33.03;;;21.75;;
45198;SDS011;30941;46.422;18.772;2024-03-23T03:41:07;33.35;;;22.58;;
45198;SDS011;30941;46.422;18.772;2024-03-23T03:43:32;31.42;;;22.67;;
45198;SDS011;30941;46.422;18.772;2024-03-23T03:45:59;32.95;;;21.88;;
45198;SDS011;30941;46.422;18.772;2024-03-23T03:48:25;32.70;;;22.40;;
45198;SDS011;30941;46.422;18.772;2024-03-23T03:50:51;32.75;;;22.75;;
45198;SDS011;30941;46.422;18.772;2024-03-23T03:53:17;35.28;;;22.48;;
45198;SDS011;30941;46.422;18.772;2024-03-23T03:55:42;34.28;;;22.48;;
45198;SDS011;30941;46.422;18.772;2024-03-23T03:58:08;33.53;;;22.65;;
45198;SDS011;30941;46.422;18.772;2024-03-23T04:00:33;33.05;;;22.30;;
45198;SDS011;30941;46.422;18.772;2024-03-23T04:02:59;36.45;;;23.10;;
45198;SDS011;30941;46.422;18.772;2024-03-23T04:05:24;33.25;;;23.15;;
45198;SDS011;30941;46.422;18.772;2024-03-23T04:07:50;35.97;;;22.88;;
45198;SDS011;30941;46.422;18.772;2024-03-23T04:10:15;34.05;;;23.25;;
45198;SDS011;30941;46.422;18.772;2024-03-23T04:12:41;28.73;;;21.45;;
45198;SDS011;30941;46.422;18.772;2024-03-23T04:15:08;31.85;;;22.48;;
45198;SDS011;30941;46.422;18.772;2024-03-23T04:17:34;33.58;;;22.95;;
45198;SDS011;30941;46.422;18.772;2024-03-23T04:20:00;31.48;;;22.55;;
45198;SDS011;30941;46.422;18.772;2024-03-23T04:22:26;36.78;;;23.10;;
45198;SDS011;30941;46.422;18.772;2024-03-23T04:24:55;33.47;;;22.83;;
45198;SDS011;30941;46.422;18.772;2024-03-23T04:27:21;32.22;;;21.75;;
45198;SDS011;30941;46.422;18.772;2024-03-23T04:29:47;36.10;;;23.20;;
45198;SDS011;30941;46.422;18.772;2024-03-23T04:32:13;32.80;;;22.67;;
45198;SDS011;30941;46.422;18.772;2024-03-23T04:34:39;37.60;;;23.38;;
45198;SDS011;30941;46.422;18.772;2024-03-23T04:37:04;33.50;;;22.67;;
45198;SDS011;30941;46.422;18.772;2024-03-23T04:39:29;30.60;;;22.40;;
45198;SDS011;30941;46.422;18.772;2024-03-23T04:41:55;33.15;;;22.08;;
45198;SDS011;30941;46.422;18.772;2024-03-23T04:44:20;35.85;;;23.63;;
45198;SDS011;30941;46.422;18.772;2024-03-23T04:46:46;35.38;;;22.55;;
45198;SDS011;30941;46.422;18.772;2024-03-23T04:49:11;35.72;;;22.70;;
45198;SDS011;30941;46.422;18.772;2024-03-23T04:51:36;32.17;;;21.52;;
45198;SDS011;30941;46.422;18.772;2024-03-23T04:54:02;33.00;;;22.33;;
45198;SDS011;30941;46.422;18.772;2024-03-23T04:56:29;33.22;;;22.27;;
45198;SDS011;30941;46.422;18.772;2024-03-23T04:58:54;36.53;;;23.85;;
45198;SDS011;30941;46.422;18.772;2024-03-23T05:01:19;31.23;;;22.30;;
45198;SDS011;30941;46.422;18.772;2024-03-23T05:03:45;30.48;;;21.75;;
45198;SDS011;30941;46.422;18.772;2024-03-23T05:06:10;32.15;;;21.58;;
45198;SDS011;30941;46.422;18.772;2024-03-23T05:08:35;33.47;;;22.70;;
45198;SDS011;30941;46.422;18.772;2024-03-23T05:11:01;29.63;;;21.38;;
45198;SDS011;30941;46.422;18.772;2024-03-23T05:13:27;31.75;;;22.25;;
45198;SDS011;30941;46.422;18.772;2024-03-23T05:15:53;35.40;;;23.52;;
45198;SDS011;30941;46.422;18.772;2024-03-23T05:18:19;35.70;;;23.02;;
45198;SDS011;30941;46.422;18.772;2024-03-23T05:20:44;32.60;;;23.48;;
45198;SDS011;30941;46.422;18.772;2024-03-23T05:23:10;36.63;;;24.48;;
45198;SDS011;30941;46.422;18.772;2024-03-23T05:25:35;39.97;;;25.20;;
45198;SDS011;30941;46.422;18.772;2024-03-23T05:28:00;35.53;;;24.95;;
45198;SDS011;30941;46.422;18.772;2024-03-23T05:30:26;35.35;;;25.13;;
45198;SDS011;30941;46.422;18.772;2024-03-23T05:32:51;36.83;;;24.50;;
45198;SDS011;30941;46.422;18.772;2024-03-23T05:35:16;36.33;;;23.20;;
45198;SDS011;30941;46.422;18.772;2024-03-23T05:37:42;35.83;;;23.52;;
45198;SDS011;30941;46.422;18.772;2024-03-23T05:40:07;33.92;;;24.20;;
45198;SDS011;30941;46.422;18.772;2024-03-23T05:42:34;41.00;;;25.27;;
45198;SDS011;30941;46.422;18.772;2024-03-23T05:44:59;37.20;;;24.98;;
45198;SDS011;30941;46.422;18.772;2024-03-23T05:47:25;34.97;;;24.30;;
45198;SDS011;30941;46.422;18.772;2024-03-23T05:49:50;36.20;;;24.45;;
45198;SDS011;30941;46.422;18.772;2024-03-23T05:52:17;32.55;;;23.92;;
45198;SDS011;30941;46.422;18.772;2024-03-23T05:54:42;35.45;;;24.90;;
45198;SDS011;30941;46.422;18.772;2024-03-23T05:57:08;35.38;;;25.25;;
45198;SDS011;30941;46.422;18.772;2024-03-23T05:59:34;31.45;;;23.98;;
45198;SDS011;30941;46.422;18.772;2024-03-23T06:01:59;34.38;;;24.67;;
45198;SDS011;30941;46.422;18.772;2024-03-23T06:04:24;37.25;;;24.75;;
45198;SDS011;30941;46.422;18.772;2024-03-23T06:06:50;31.92;;;24.00;;
45198;SDS011;30941;46.422;18.772;2024-03-23T06:09:17;34.72;;;24.40;;
45198;SDS011;30941;46.422;18.772;2024-03-23T06:11:42;39.72;;;25.42;;
45198;SDS011;30941;46.422;18.772;2024-03-23T06:14:08;37.33;;;25.27;;
45198;SDS011;30941;46.422;18.772;2024-03-23T06:16:33;32.85;;;23.92;;
45198;SDS011;30941;46.422;18.772;2024-03-23T06:18:58;33.63;;;23.27;;
45198;SDS011;30941;46.422;18.772;2024-03-23T06:21:25;33.50;;;24.17;;
45198;SDS011;30941;46.422;18.772;2024-03-23T06:23:53;32.53;;;22.48;;
45198;SDS011;30941;46.422;18.772;2024-03-23T06:26:19;32.45;;;22.77;;
45198;SDS011;30941;46.422;18.772;2024-03-23T06:28:45;33.33;;;22.73;;
45198;SDS011;30941;46.422;18.772;2024-03-23T06:31:10;32.53;;;23.13;;
45198;SDS011;30941;46.422;18.772;2024-03-23T06:33:36;31.38;;;23.13;;
45198;SDS011;30941;46.422;18.772;2024-03-23T06:36:01;32.70;;;21.73;;
45198;SDS011;30941;46.422;18.772;2024-03-23T06:38:28;29.30;;;21.73;;
45198;SDS011;30941;46.422;18.772;2024-03-23T06:40:53;33.30;;;23.60;;
45198;SDS011;30941;46.422;18.772;2024-03-23T06:43:19;31.70;;;21.30;;
45198;SDS011;30941;46.422;18.772;2024-03-23T06:45:44;31.17;;;21.30;;
45198;SDS011;30941;46.422;18.772;2024-03-23T06:48:09;31.17;;;21.38;;
45198;SDS011;30941;46.422;18.772;2024-03-23T06:50:35;28.23;;;21.33;;
45198;SDS011;30941;46.422;18.772;2024-03-23T06:53:00;33.33;;;21.92;;
45198;SDS011;30941;46.422;18.772;2024-03-23T06:55:27;32.08;;;22.52;;
45198;SDS011;30941;46.422;18.772;2024-03-23T06:57:55;34.25;;;22.05;;
45198;SDS011;30941;46.422;18.772;2024-03-23T07:00:20;32.60;;;20.83;;
45198;SDS011;30941;46.422;18.772;2024-03-23T07:02:46;32.45;;;21.60;;
45198;SDS011;30941;46.422;18.772;2024-03-23T07:05:11;30.63;;;21.17;;
45198;SDS011;30941;46.422;18.772;2024-03-23T07:07:37;26.77;;;19.70;;
45198;SDS011;30941;46.422;18.772;2024-03-23T07:10:04;25.83;;;18.92;;
45198;SDS011;30941;46.422;18.772;2024-03-23T07:12:30;30.45;;;20.75;;
45198;SDS011;30941;46.422;18.772;2024-03-23T07:14:55;26.73;;;20.33;;
45198;SDS011;30941;46.422;18.772;2024-03-23T07:17:21;29.17;;;19.30;;
45198;SDS011;30941;46.422;18.772;2024-03-23T07:19:46;24.90;;;18.52;;
45198;SDS011;30941;46.422;18.772;2024-03-23T07:22:11;25.38;;;20.30;;
45198;SDS011;30941;46.422;18.772;2024-03-23T07:24:37;25.70;;;18.90;;
45198;SDS011;30941;46.422;18.772;2024-03-23T07:27:04;27.23;;;18.10;;
45198;SDS011;30941;46.422;18.772;2024-03-23T07:29:29;24.73;;;18.33;;
45198;SDS011;30941;46.422;18.772;2024-03-23T07:31:55;22.13;;;17.73;;
45198;SDS011;30941;46.422;18.772;2024-03-23T07:34:20;24.80;;;17.98;;
45198;SDS011;30941;46.422;18.772;2024-03-23T07:36:46;25.00;;;18.52;;
45198;SDS011;30941;46.422;18.772;2024-03-23T07:39:11;24.15;;;18.30;;
45198;SDS011;30941;46.422;18.772;2024-03-23T07:41:36;23.42;;;17.45;;
45198;SDS011;30941;46.422;18.772;2024-03-23T07:44:02;24.35;;;17.63;;
45198;SDS011;30941;46.422;18.772;2024-03-23T07:46:27;24.98;;;18.63;;
45198;SDS011;30941;46.422;18.772;2024-03-23T07:48:53;22.35;;;18.35;;
45198;SDS011;30941;46.422;18.772;2024-03-23T07:51:21;22.92;;;17.60;;
45198;SDS011;30941;46.422;18.772;2024-03-23T07:53:47;21.55;;;18.58;;
45198;SDS011;30941;46.422;18.772;2024-03-23T07:56:17;23.80;;;17.92;;
45198;SDS011;30941;46.422;18.772;2024-03-23T07:58:46;23.00;;;17.17;;
45198;SDS011;30941;46.422;18.772;2024-03-23T08:01:12;28.17;;;19.67;;
45198;SDS011;30941;46.422;18.772;2024-03-23T08:03:40;22.90;;;17.58;;
45198;SDS011;30941;46.422;18.772;2024-03-23T08:06:10;24.92;;;19.05;;
45198;SDS011;30941;46.422;18.772;2024-03-23T08:08:40;27.27;;;18.40;;
45198;SDS011;30941;46.422;18.772;2024-03-23T08:11:06;23.70;;;17.60;;
45198;SDS011;30941;46.422;18.772;2024-03-23T08:13:32;23.00;;;17.60;;
45198;SDS011;30941;46.422;18.772;2024-03-23T08:16:01;23.33;;;17.77;;
45198;SDS011;30941;46.422;18.772;2024-03-23T08:18:28;24.15;;;18.70;;
45198;SDS011;30941;46.422;18.772;2024-03-23T08:23:22;27.05;;;17.85;;
45198;SDS011;30941;46.422;18.772;2024-03-23T08:25:49;22.45;;;17.13;;
45198;SDS011;30941;46.422;18.772;2024-03-23T08:28:14;20.85;;;16.80;;
45198;SDS011;30941;46.422;18.772;2024-03-23T08:30:39;24.27;;;17.67;;
45198;SDS011;30941;46.422;18.772;2024-03-23T08:33:05;23.20;;;17.80;;
45198;SDS011;30941;46.422;18.772;2024-03-23T08:35:30;24.50;;;17.85;;
45198;SDS011;30941;46.422;18.772;2024-03-23T08:37:55;23.45;;;17.17;;
45198;SDS011;30941;46.422;18.772;2024-03-23T08:40:21;23.38;;;16.83;;
45198;SDS011;30941;46.422;18.772;2024-03-23T08:42:47;21.45;;;16.88;;
45198;SDS011;30941;46.422;18.772;2024-03-23T08:45:12;22.35;;;16.35;;
45198;SDS011;30941;46.422;18.772;2024-03-23T08:47:38;23.55;;;16.48;;
45198;SDS011;30941;46.422;18.772;2024-03-23T08:50:03;21.50;;;16.05;;
45198;SDS011;30941;46.422;18.772;2024-03-23T08:52:28;21.73;;;15.68;;
45198;SDS011;30941;46.422;18.772;2024-03-23T08:54:54;23.25;;;15.45;;
45198;SDS011;30941;46.422;18.772;2024-03-23T08:57:21;20.25;;;15.02;;
45198;SDS011;30941;46.422;18.772;2024-03-23T08:59:47;23.08;;;15.30;;
45198;SDS011;30941;46.422;18.772;2024-03-23T09:02:13;22.30;;;15.10;;
45198;SDS011;30941;46.422;18.772;2024-03-23T09:04:38;17.38;;;14.48;;
45198;SDS011;30941;46.422;18.772;2024-03-23T09:07:03;18.30;;;13.40;;
45198;SDS011;30941;46.422;18.772;2024-03-23T09:09:29;21.17;;;14.20;;
45198;SDS011;30941;46.422;18.772;2024-03-23T09:11:55;18.98;;;14.75;;
45198;SDS011;30941;46.422;18.772;2024-03-23T09:14:21;20.65;;;15.50;;
45198;SDS011;30941;46.422;18.772;2024-03-23T09:16:49;21.33;;;16.35;;
45198;SDS011;30941;46.422;18.772;2024-03-23T09:19:14;18.02;;;12.63;;
45198;SDS011;30941;46.422;18.772;2024-03-23T09:21:40;16.38;;;12.63;;
45198;SDS011;30941;46.422;18.772;2024-03-23T09:24:05;23.23;;;12.27;;
45198;SDS011;30941;46.422;18.772;2024-03-23T09:26:31;15.75;;;11.88;;
45198;SDS011;30941;46.422;18.772;2024-03-23T09:28:56;15.45;;;11.98;;
45198;SDS011;30941;46.422;18.772;2024-03-23T09:31:21;17.42;;;12.75;;
45198;SDS011;30941;46.422;18.772;2024-03-23T09:33:47;18.30;;;12.10;;
45198;SDS011;30941;46.422;18.772;2024-03-23T09:36:12;15.27;;;11.77;;
45198;SDS011;30941;46.422;18.772;2024-03-23T09:38:38;19.42;;;12.38;;
45198;SDS011;30941;46.422;18.772;2024-03-23T09:41:06;15.52;;;11.52;;
45198;SDS011;30941;46.422;18.772;2024-03-23T09:43:33;11.85;;;8.75;;
45198;SDS011;30941;46.422;18.772;2024-03-23T09:45:58;11.27;;;8.52;;
45198;SDS011;30941;46.422;18.772;2024-03-23T09:48:23;14.63;;;9.70;;
45198;SDS011;30941;46.422;18.772;2024-03-23T09:50:49;11.50;;;9.45;;
45198;SDS011;30941;46.422;18.772;2024-03-23T09:53:15;13.75;;;10.13;;
45198;SDS011;30941;46.422;18.772;2024-03-23T09:55:41;12.07;;;9.63;;
45198;SDS011;30941;46.422;18.772;2024-03-23T09:58:07;10.88;;;8.27;;
45198;SDS011;30941;46.422;18.772;2024-03-23T10:00:33;11.30;;;7.82;;
45198;SDS011;30941;46.422;18.772;2024-03-23T10:02:59;13.07;;;8.57;;
45198;SDS011;30941;46.422;18.772;2024-03-23T10:05:27;11.02;;;7.65;;
45198;SDS011;30941;46.422;18.772;2024-03-23T10:07:53;11.85;;;8.43;;
45198;SDS011;30941;46.422;18.772;2024-03-23T10:10:18;9.48;;;7.47;;
45198;SDS011;30941;46.422;18.772;2024-03-23T10:12:48;8.48;;;7.05;;
45198;SDS011;30941;46.422;18.772;2024-03-23T10:15:23;8.52;;;6.72;;
45198;SDS011;30941;46.422;18.772;2024-03-23T10:17:49;11.10;;;6.63;;
45198;SDS011;30941;46.422;18.772;2024-03-23T10:20:22;11.90;;;6.63;;
45198;SDS011;30941;46.422;18.772;2024-03-23T10:22:48;9.57;;;6.65;;
45198;SDS011;30941;46.422;18.772;2024-03-23T10:25:14;9.82;;;6.13;;
45198;SDS011;30941;46.422;18.772;2024-03-23T10:27:40;10.32;;;6.13;;
45198;SDS011;30941;46.422;18.772;2024-03-23T10:30:13;6.75;;;5.70;;
45198;SDS011;30941;46.422;18.772;2024-03-23T10:32:39;7.35;;;5.38;;
45198;SDS011;30941;46.422;18.772;2024-03-23T10:35:18;10.85;;;5.63;;
45198;SDS011;30941;46.422;18.772;2024-03-23T10:37:44;7.07;;;5.13;;
45198;SDS011;30941;46.422;18.772;2024-03-23T10:40:11;7.43;;;5.15;;
45198;SDS011;30941;46.422;18.772;2024-03-23T10:42:37;6.30;;;4.97;;
45198;SDS011;30941;46.422;18.772;2024-03-23T10:45:06;7.35;;;4.95;;
45198;SDS011;30941;46.422;18.772;2024-03-23T10:47:33;7.97;;;5.82;;
45198;SDS011;30941;46.422;18.772;2024-03-23T10:50:00;8.70;;;5.93;;
45198;SDS011;30941;46.422;18.772;2024-03-23T10:52:25;10.88;;;6.38;;
45198;SDS011;30941;46.422;18.772;2024-03-23T10:54:51;9.07;;;5.53;;
45198;SDS011;30941;46.422;18.772;2024-03-23T10:57:20;9.38;;;6.57;;
45198;SDS011;30941;46.422;18.772;2024-03-23T10:59:47;7.32;;;5.07;;
45198;SDS011;30941;46.422;18.772;2024-03-23T11:02:19;9.07;;;5.20;;
45198;SDS011;30941;46.422;18.772;2024-03-23T11:04:44;7.72;;;5.63;;
45198;SDS011;30941;46.422;18.772;2024-03-23T11:07:31;9.65;;;4.90;;
45198;SDS011;30941;46.422;18.772;2024-03-23T11:09:58;7.10;;;3.38;;
45198;SDS011;30941;46.422;18.772;2024-03-23T11:14:50;6.85;;;3.38;;
45198;SDS011;30941;46.422;18.772;2024-03-23T11:17:19;6.40;;;3.30;;
45198;SDS011;30941;46.422;18.772;2024-03-23T11:19:49;3.58;;;2.95;;
45198;SDS011;30941;46.422;18.772;2024-03-23T11:22:37;15.93;;;3.53;;
45198;SDS011;30941;46.422;18.772;2024-03-23T11:25:03;4.25;;;3.00;;
45198;SDS011;30941;46.422;18.772;2024-03-23T11:27:36;5.57;;;2.83;;
45198;SDS011;30941;46.422;18.772;2024-03-23T11:30:11;18.17;;;3.40;;
45198;SDS011;30941;46.422;18.772;2024-03-23T11:32:37;6.20;;;2.78;;
45198;SDS011;30941;46.422;18.772;2024-03-23T11:35:02;9.20;;;2.90;;
45198;SDS011;30941;46.422;18.772;2024-03-23T11:37:28;3.72;;;2.83;;
45198;SDS011;30941;46.422;18.772;2024-03-23T11:39:53;10.30;;;2.97;;
45198;SDS011;30941;46.422;18.772;2024-03-23T11:42:18;6.15;;;2.42;;
45198;SDS011;30941;46.422;18.772;2024-03-23T11:44:46;5.28;;;2.30;;
45198;SDS011;30941;46.422;18.772;2024-03-23T11:47:12;4.28;;;2.65;;
45198;SDS011;30941;46.422;18.772;2024-03-23T11:49:37;4.68;;;2.55;;
45198;SDS011;30941;46.422;18.772;2024-03-23T11:52:05;4.65;;;2.95;;
45198;SDS011;30941;46.422;18.772;2024-03-23T11:54:31;3.28;;;2.40;;
45198;SDS011;30941;46.422;18.772;2024-03-23T11:57:00;4.78;;;2.67;;
45198;SDS011;30941;46.422;18.772;2024-03-23T11:59:33;5.68;;;2.70;;
45198;SDS011;30941;46.422;18.772;2024-03-23T12:01:58;4.20;;;2.47;;
45198;SDS011;30941;46.422;18.772;2024-03-23T12:04:25;3.35;;;2.45;;
45198;SDS011;30941;46.422;18.772;2024-03-23T12:06:51;13.13;;;3.13;;
45198;SDS011;30941;46.422;18.772;2024-03-23T12:09:17;6.72;;;2.60;;
45198;SDS011;30941;46.422;18.772;2024-03-23T12:11:42;7.35;;;2.97;;
45198;SDS011;30941;46.422;18.772;2024-03-23T12:14:07;4.55;;;2.60;;
45198;SDS011;30941;46.422;18.772;2024-03-23T12:16:33;9.57;;;2.95;;
45198;SDS011;30941;46.422;18.772;2024-03-23T12:19:04;3.95;;;2.78;;
45198;SDS011;30941;46.422;18.772;2024-03-23T12:21:30;7.60;;;2.88;;
45198;SDS011;30941;46.422;18.772;2024-03-23T12:23:56;4.45;;;3.00;;
45198;SDS011;30941;46.422;18.772;2024-03-23T12:26:22;6.63;;;3.10;;
45198;SDS011;30941;46.422;18.772;2024-03-23T12:28:48;7.25;;;2.85;;
45198;SDS011;30941;46.422;18.772;2024-03-23T12:31:13;10.52;;;2.97;;
45198;SDS011;30941;46.422;18.772;2024-03-23T12:33:39;10.38;;;2.72;;
45198;SDS011;30941;46.422;18.772;2024-03-23T12:36:04;4.85;;;2.70;;
45198;SDS011;30941;46.422;18.772;2024-03-23T12:38:30;4.22;;;2.92;;
45198;SDS011;30941;46.422;18.772;2024-03-23T12:40:55;13.00;;;3.05;;
45198;SDS011;30941;46.422;18.772;2024-03-23T12:43:20;6.63;;;2.92;;
45198;SDS011;30941;46.422;18.772;2024-03-23T12:45:46;3.65;;;2.47;;
45198;SDS011;30941;46.422;18.772;2024-03-23T12:48:14;3.75;;;2.70;;
45198;SDS011;30941;46.422;18.772;2024-03-23T12:50:40;7.82;;;2.78;;
45198;SDS011;30941;46.422;18.772;2024-03-23T12:53:05;4.70;;;2.85;;
45198;SDS011;30941;46.422;18.772;2024-03-23T12:55:31;4.63;;;2.80;;
45198;SDS011;30941;46.422;18.772;2024-03-23T12:57:56;3.88;;;2.83;;
45198;SDS011;30941;46.422;18.772;2024-03-23T13:00:22;6.90;;;2.95;;
45198;SDS011;30941;46.422;18.772;2024-03-23T13:02:47;4.15;;;2.80;;
45198;SDS011;30941;46.422;18.772;2024-03-23T13:05:13;5.43;;;2.78;;
45198;SDS011;30941;46.422;18.772;2024-03-23T13:07:38;5.45;;;2.65;;
45198;SDS011;30941;46.422;18.772;2024-03-23T13:10:04;3.90;;;2.50;;
45198;SDS011;30941;46.422;18.772;2024-03-23T13:12:30;9.27;;;2.65;;
45198;SDS011;30941;46.422;18.772;2024-03-23T13:14:56;7.88;;;2.58;;
45198;SDS011;30941;46.422;18.772;2024-03-23T13:17:21;5.28;;;2.25;;
45198;SDS011;30941;46.422;18.772;2024-03-23T13:19:46;5.60;;;2.22;;
45198;SDS011;30941;46.422;18.772;2024-03-23T13:22:12;7.32;;;2.58;;
45198;SDS011;30941;46.422;18.772;2024-03-23T13:24:37;4.22;;;2.40;;
45198;SDS011;30941;46.422;18.772;2024-03-23T13:27:03;7.60;;;2.33;;
45198;SDS011;30941;46.422;18.772;2024-03-23T13:29:30;4.18;;;2.17;;
45198;SDS011;30941;46.422;18.772;2024-03-23T13:31:55;6.10;;;3.13;;
45198;SDS011;30941;46.422;18.772;2024-03-23T13:34:21;4.75;;;2.53;;
45198;SDS011;30941;46.422;18.772;2024-03-23T13:36:46;4.90;;;3.17;;
45198;SDS011;30941;46.422;18.772;2024-03-23T13:39:13;11.63;;;2.10;;
45198;SDS011;30941;46.422;18.772;2024-03-23T13:41:39;4.70;;;2.45;;
45198;SDS011;30941;46.422;18.772;2024-03-23T13:44:05;4.18;;;2.40;;
45198;SDS011;30941;46.422;18.772;2024-03-23T13:46:31;15.57;;;2.70;;
45198;SDS011;30941;46.422;18.772;2024-03-23T13:48:57;3.35;;;2.15;;
45198;SDS011;30941;46.422;18.772;2024-03-23T13:51:23;11.82;;;2.80;;
45198;SDS011;30941;46.422;18.772;2024-03-23T13:53:50;4.95;;;2.53;;
45198;SDS011;30941;46.422;18.772;2024-03-23T13:56:16;4.00;;;2.60;;
45198;SDS011;30941;46.422;18.772;2024-03-23T13:58:41;5.18;;;2.63;;
45198;SDS011;30941;46.422;18.772;2024-03-23T14:01:10;4.53;;;2.20;;
45198;SDS011;30941;46.422;18.772;2024-03-23T14:03:36;3.95;;;2.50;;
45198;SDS011;30941;46.422;18.772;2024-03-23T14:06:01;4.72;;;2.95;;
45198;SDS011;30941;46.422;18.772;2024-03-23T14:08:28;6.18;;;3.90;;
45198;SDS011;30941;46.422;18.772;2024-03-23T14:10:53;3.58;;;2.40;;
45198;SDS011;30941;46.422;18.772;2024-03-23T14:13:19;3.97;;;2.00;;
45198;SDS011;30941;46.422;18.772;2024-03-23T14:15:45;4.43;;;2.08;;
45198;SDS011;30941;46.422;18.772;2024-03-23T14:18:10;4.05;;;2.03;;
45198;SDS011;30941;46.422;18.772;2024-03-23T14:20:35;3.30;;;2.00;;
45198;SDS011;30941;46.422;18.772;2024-03-23T14:23:01;5.10;;;2.30;;
45198;SDS011;30941;46.422;18.772;2024-03-23T14:25:26;3.97;;;2.60;;
45198;SDS011;30941;46.422;18.772;2024-03-23T14:27:52;3.97;;;3.10;;
45198;SDS011;30941;46.422;18.772;2024-03-23T14:30:17;3.33;;;2.30;;
45198;SDS011;30941;46.422;18.772;2024-03-23T14:32:43;5.93;;;2.38;;
45198;SDS011;30941;46.422;18.772;2024-03-23T14:35:08;7.15;;;2.65;;
45198;SDS011;30941;46.422;18.772;2024-03-23T14:37:36;12.05;;;2.75;;
45198;SDS011;30941;46.422;18.772;2024-03-23T14:40:02;4.45;;;2.53;;
45198;SDS011;30941;46.422;18.772;2024-03-23T14:42:28;20.35;;;4.85;;
45198;SDS011;30941;46.422;18.772;2024-03-23T14:44:53;9.30;;;4.75;;
45198;SDS011;30941;46.422;18.772;2024-03-23T14:47:19;8.07;;;3.55;;
45198;SDS011;30941;46.422;18.772;2024-03-23T14:49:45;7.22;;;2.50;;
45198;SDS011;30941;46.422;18.772;2024-03-23T14:52:12;9.88;;;2.85;;
45198;SDS011;30941;46.422;18.772;2024-03-23T14:54:38;4.70;;;3.40;;
45198;SDS011;30941;46.422;18.772;2024-03-23T14:57:04;7.13;;;4.20;;
45198;SDS011;30941;46.422;18.772;2024-03-23T14:59:29;8.10;;;3.85;;
45198;SDS011;30941;46.422;18.772;2024-03-23T15:01:55;6.25;;;3.03;;
45198;SDS011;30941;46.422;18.772;2024-03-23T15:04:20;4.45;;;2.63;;
45198;SDS011;30941;46.422;18.772;2024-03-23T15:06:46;4.60;;;2.90;;
45198;SDS011;30941;46.422;18.772;2024-03-23T15:09:14;10.95;;;4.72;;